Time;durP1;ratioP1;P1;durP2;ratioP2;P2;SDS_P1;SDS_P2;PMS_P1;PMS_P2;Temp;Humidity;BMP_temperature;BMP_pressure;BME280_temperature;BME280_humidity;BME280_pressure;Samples;Min_cycle;Max_cycle;Signal;HPM_P1;HPM_P2
2022/07/30 00:01:15;;;;;;;7.07;6.38;;;;;;;;;;4936038;29;20056;-67
2022/07/30 00:03:42;;;;;;;7.65;6.93;;;;;;;;;;4935897;29;20047;-66
2022/07/30 00:06:08;;;;;;;8.77;6.32;;;;;;;;;;4935936;29;20055;-66
2022/07/30 00:08:35;;;;;;;8.45;6.78;;;;;;;;;;4935779;29;20051;-67
2022/07/30 00:11:01;;;;;;;6.90;6.25;;;;;;;;;;4936042;29;20063;-66
2022/07/30 00:13:28;;;;;;;8.38;7.15;;;;;;;;;;4934819;29;20507;-66
2022/07/30 00:15:55;;;;;;;11.00;6.68;;;;;;;;;;4934591;29;20494;-66
2022/07/30 00:18:22;;;;;;;6.43;5.82;;;;;;;;;;4935443;29;20052;-66
2022/07/30 00:20:48;;;;;;;6.97;6.35;;;;;;;;;;4935595;29;20057;-66
2022/07/30 00:23:16;;;;;;;7.50;6.80;;;;;;;;;;4935928;29;20063;-66
2022/07/30 00:25:43;;;;;;;6.82;6.25;;;;;;;;;;4935589;29;20055;-66
2022/07/30 00:28:10;;;;;;;7.55;6.82;;;;;;;;;;4935298;29;20467;-66
2022/07/30 00:30:37;;;;;;;7.57;6.85;;;;;;;;;;4935496;29;20422;-65
2022/07/30 00:33:11;;;;;;;8.32;7.55;;;;;;;;;;5089345;27;20895;-66
2022/07/30 00:35:38;;;;;;;8.07;7.28;;;;;;;;;;5089313;28;20048;-67
2022/07/30 00:38:05;;;;;;;8.02;7.22;;;;;;;;;;5089077;28;20048;-66
2022/07/30 00:40:31;;;;;;;8.57;7.68;;;;;;;;;;5089108;28;20052;-67
2022/07/30 00:42:58;;;;;;;7.70;6.95;;;;;;;;;;5089257;28;20090;-66
2022/07/30 00:45:26;;;;;;;8.73;8.02;;;;;;;;;;5088931;28;20503;-66
2022/07/30 00:47:53;;;;;;;7.93;7.18;;;;;;;;;;5089091;28;20411;-66
2022/07/30 00:50:20;;;;;;;8.35;6.95;;;;;;;;;;5088921;28;20048;-66
2022/07/30 00:52:47;;;;;;;7.80;6.85;;;;;;;;;;5089042;28;20418;-66
2022/07/30 00:55:15;;;;;;;7.35;6.65;;;;;;;;;;5088974;28;20426;-68
2022/07/30 00:57:41;;;;;;;7.53;6.35;;;;;;;;;;5088906;28;20052;-67
2022/07/30 01:00:12;;;;;;;6.68;6.07;;;;;;;;;;5088425;28;20053;-67
2022/07/30 01:02:38;;;;;;;7.40;6.20;;;;;;;;;;5088968;28;20127;-68
2022/07/30 01:05:06;;;;;;;5.82;5.18;;;;;;;;;;5088815;28;20055;-67
2022/07/30 01:07:33;;;;;;;8.25;5.22;;;;;;;;;;5088706;28;20055;-67
2022/07/30 01:09:59;;;;;;;5.40;5.00;;;;;;;;;;5088423;28;20055;-67
2022/07/30 01:12:26;;;;;;;6.18;4.95;;;;;;;;;;5087306;28;20052;-69
2022/07/30 01:14:55;;;;;;;5.18;4.78;;;;;;;;;;5088353;28;20052;-67
2022/07/30 01:17:21;;;;;;;4.50;4.10;;;;;;;;;;5087458;28;20044;-67
2022/07/30 01:19:48;;;;;;;5.68;4.80;;;;;;;;;;5088407;28;20052;-67
2022/07/30 01:22:23;;;;;;;5.07;4.68;;;;;;;;;;5087324;28;20051;-68
2022/07/30 01:25:26;;;;;;;6.50;5.20;;;;;;;;;;5087168;28;20495;-65
2022/07/30 01:27:56;;;;;;;5.60;5.07;;;;;;;;;;5087301;28;20055;-67
2022/07/30 01:30:25;;;;;;;5.03;4.53;;;;;;;;;;5070526;28;20044;-65
2022/07/30 01:32:53;;;;;;;6.70;4.60;;;;;;;;;;5086860;28;20052;-67
2022/07/30 01:35:21;;;;;;;4.15;3.83;;;;;;;;;;5086849;28;20049;-67
2022/07/30 01:37:48;;;;;;;4.82;4.30;;;;;;;;;;5087917;28;20059;-68
2022/07/30 01:40:14;;;;;;;5.05;4.65;;;;;;;;;;5087035;28;20044;-67
2022/07/30 01:42:43;;;;;;;5.28;4.82;;;;;;;;;;5085122;28;20071;-68
2022/07/30 01:45:11;;;;;;;5.03;3.92;;;;;;;;;;5056757;28;20056;-67
2022/07/30 01:47:37;;;;;;;5.25;4.75;;;;;;;;;;5056979;28;20059;-68
2022/07/30 01:50:05;;;;;;;5.53;4.20;;;;;;;;;;5072865;28;20415;-67
2022/07/30 01:52:36;;;;;;;6.20;4.18;;;;;;;;;;5073409;28;20411;-65
2022/07/30 01:55:03;;;;;;;4.50;3.83;;;;;;;;;;5074575;28;20058;-65
2022/07/30 01:57:37;;;;;;;5.07;4.50;;;;;;;;;;5073278;28;20052;-65
2022/07/30 02:00:05;;;;;;;3.72;3.42;;;;;;;;;;5056317;28;20052;-66
2022/07/30 02:02:35;;;;;;;4.82;4.32;;;;;;;;;;5072882;28;20044;-66
2022/07/30 02:05:02;;;;;;;4.65;4.13;;;;;;;;;;5056266;28;20483;-67
2022/07/30 02:07:54;;;;;;;4.43;4.03;;;;;;;;;;5073023;28;20495;-66
2022/07/30 02:10:41;;;;;;;4.78;4.35;;;;;;;;;;5057026;28;20148;-66
2022/07/30 02:13:09;;;;;;;4.72;4.05;;;;;;;;;;5057468;28;20048;-66
2022/07/30 02:15:48;;;;;;;4.65;4.22;;;;;;;;;;5056199;28;20052;-67
2022/07/30 02:18:49;;;;;;;6.35;3.75;;;;;;;;;;5072649;28;20071;-66
2022/07/30 02:21:18;;;;;;;4.50;4.10;;;;;;;;;;5073760;28;20067;-66
2022/07/30 02:23:46;;;;;;;5.43;4.45;;;;;;;;;;5056208;28;20478;-66
2022/07/30 02:26:17;;;;;;;4.57;3.88;;;;;;;;;;5056119;28;20049;-67
2022/07/30 02:28:47;;;;;;;4.40;4.03;;;;;;;;;;5056305;28;20071;-67
2022/07/30 02:31:13;;;;;;;4.27;3.87;;;;;;;;;;5055954;28;20470;-66
2022/07/30 02:33:43;;;;;;;4.40;4.05;;;;;;;;;;5072158;28;20088;-66
2022/07/30 02:36:14;;;;;;;4.78;3.97;;;;;;;;;;5072569;28;20059;-67
2022/07/30 02:38:41;;;;;;;4.85;4.45;;;;;;;;;;5055523;28;20056;-66
2022/07/30 02:41:07;;;;;;;5.45;4.82;;;;;;;;;;5072178;28;20419;-66
2022/07/30 02:43:35;;;;;;;4.40;4.00;;;;;;;;;;5055937;28;20048;-66
2022/07/30 02:46:02;;;;;;;7.18;4.50;;;;;;;;;;5055793;28;20414;-67
2022/07/30 02:48:29;;;;;;;6.35;4.10;;;;;;;;;;5071744;28;20048;-66
2022/07/30 02:51:00;;;;;;;7.90;4.15;;;;;;;;;;5056447;28;20076;-67
2022/07/30 02:53:27;;;;;;;4.13;3.72;;;;;;;;;;5072942;28;20048;-66
2022/07/30 02:55:54;;;;;;;5.63;4.25;;;;;;;;;;5054475;28;20182;-66
2022/07/30 02:58:22;;;;;;;5.45;3.90;;;;;;;;;;5055192;28;20419;-67
2022/07/30 03:00:49;;;;;;;5.10;3.92;;;;;;;;;;5071755;28;20048;-67
2022/07/30 03:03:17;;;;;;;4.75;4.35;;;;;;;;;;5072869;28;20229;-67
2022/07/30 03:05:44;;;;;;;5.75;4.32;;;;;;;;;;5071591;28;20462;-66
2022/07/30 03:08:10;;;;;;;4.55;4.15;;;;;;;;;;5055239;28;20405;-66
2022/07/30 03:10:37;;;;;;;9.32;3.85;;;;;;;;;;5055118;28;20075;-67
2022/07/30 03:13:05;;;;;;;4.53;4.05;;;;;;;;;;5071546;28;20526;-67
2022/07/30 03:15:33;;;;;;;4.18;3.83;;;;;;;;;;5054856;28;20051;-67
2022/07/30 03:18:04;;;;;;;3.97;3.50;;;;;;;;;;5071586;28;20169;-67
2022/07/30 03:20:31;;;;;;;3.83;3.35;;;;;;;;;;5054173;28;20518;-67
2022/07/30 03:22:58;;;;;;;3.95;3.50;;;;;;;;;;5072704;28;20049;-67
2022/07/30 03:25:27;;;;;;;4.68;4.28;;;;;;;;;;5054879;28;20060;-68
2022/07/30 03:27:55;;;;;;;4.47;4.07;;;;;;;;;;5071062;28;20199;-68
2022/07/30 03:30:22;;;;;;;4.93;3.92;;;;;;;;;;5071411;28;20050;-67
2022/07/30 03:32:50;;;;;;;6.53;4.20;;;;;;;;;;5072303;28;20044;-67
2022/07/30 03:35:17;;;;;;;4.50;3.72;;;;;;;;;;5054713;28;20049;-67
2022/07/30 03:37:45;;;;;;;6.20;4.05;;;;;;;;;;5054960;28;20048;-69
2022/07/30 03:40:12;;;;;;;4.40;4.00;;;;;;;;;;5071202;28;20098;-67
2022/07/30 03:42:39;;;;;;;4.43;3.97;;;;;;;;;;5070926;28;20045;-67
2022/07/30 03:45:07;;;;;;;5.60;3.75;;;;;;;;;;5071118;28;20072;-67
2022/07/30 03:47:35;;;;;;;5.72;3.92;;;;;;;;;;5072389;28;20075;-67
2022/07/30 03:50:03;;;;;;;6.68;3.67;;;;;;;;;;5070739;28;20048;-67
2022/07/30 03:52:33;;;;;;;4.53;4.13;;;;;;;;;;5071941;28;20126;-67
2022/07/30 03:55:01;;;;;;;5.50;4.00;;;;;;;;;;5072217;23;20049;-65
2022/07/30 03:57:28;;;;;;;5.28;3.83;;;;;;;;;;5011356;28;20420;-65
2022/07/30 03:59:54;;;;;;;5.85;4.10;;;;;;;;;;5011434;28;20077;-66
2022/07/30 04:02:21;;;;;;;5.55;4.22;;;;;;;;;;5011286;28;20054;-65
2022/07/30 04:04:48;;;;;;;5.25;3.80;;;;;;;;;;5012487;28;20489;-65
2022/07/30 04:07:14;;;;;;;4.55;3.70;;;;;;;;;;5012168;28;20060;-65
2022/07/30 04:09:41;;;;;;;5.75;4.30;;;;;;;;;;5011954;28;20050;-66
2022/07/30 04:12:08;;;;;;;7.82;4.53;;;;;;;;;;5012547;28;20049;-65
2022/07/30 04:14:43;;;;;;;5.45;4.07;;;;;;;;;;5012444;28;20426;-65
2022/07/30 04:17:28;;;;;;;5.10;4.45;;;;;;;;;;5012242;28;20065;-65
2022/07/30 04:19:59;;;;;;;5.95;4.47;;;;;;;;;;4994499;28;20050;-66
2022/07/30 04:22:27;;;;;;;5.57;4.32;;;;;;;;;;4995057;28;20056;-66
2022/07/30 04:24:55;;;;;;;4.05;3.22;;;;;;;;;;5012069;28;20060;-66
2022/07/30 04:27:24;;;;;;;6.60;3.78;;;;;;;;;;5011103;28;20046;-66
2022/07/30 04:29:52;;;;;;;5.85;4.30;;;;;;;;;;5010789;28;20058;-65
2022/07/30 04:32:19;;;;;;;4.38;3.97;;;;;;;;;;4994959;28;20398;-65
2022/07/30 04:34:47;;;;;;;6.03;4.63;;;;;;;;;;5011986;28;20050;-65
2022/07/30 04:37:15;;;;;;;5.05;4.40;;;;;;;;;;5012130;28;20058;-65
2022/07/30 04:39:42;;;;;;;4.55;3.83;;;;;;;;;;5012061;28;20054;-66
2022/07/30 04:42:09;;;;;;;6.22;4.45;;;;;;;;;;5011904;28;20046;-65
2022/07/30 04:44:36;;;;;;;6.00;4.72;;;;;;;;;;5012259;28;20050;-65
2022/07/30 04:47:03;;;;;;;5.28;3.80;;;;;;;;;;5012573;28;20045;-65
2022/07/30 04:49:30;;;;;;;6.97;4.47;;;;;;;;;;5012198;28;20050;-65
2022/07/30 04:51:57;;;;;;;4.60;4.13;;;;;;;;;;5011188;28;20061;-65
2022/07/30 04:54:23;;;;;;;5.97;4.45;;;;;;;;;;5010785;28;20493;-65
2022/07/30 04:56:52;;;;;;;6.97;3.90;;;;;;;;;;5010901;28;20053;-66
2022/07/30 04:59:22;;;;;;;6.53;4.40;;;;;;;;;;5010300;28;20519;-65
2022/07/30 05:01:48;;;;;;;6.78;4.78;;;;;;;;;;5010536;28;20500;-65
2022/07/30 05:04:15;;;;;;;5.82;4.45;;;;;;;;;;5010629;28;20042;-65
2022/07/30 05:06:42;;;;;;;5.93;4.15;;;;;;;;;;5011735;28;20054;-65
2022/07/30 05:09:10;;;;;;;6.45;4.15;;;;;;;;;;4994164;28;20046;-66
2022/07/30 05:11:37;;;;;;;7.70;4.40;;;;;;;;;;4994587;28;20076;-66
2022/07/30 05:14:04;;;;;;;5.88;3.80;;;;;;;;;;5011561;28;20052;-65
2022/07/30 05:16:32;;;;;;;4.88;4.22;;;;;;;;;;5011497;28;20050;-65
2022/07/30 05:18:59;;;;;;;5.35;4.32;;;;;;;;;;5013009;28;20049;-65
2022/07/30 05:21:26;;;;;;;5.43;4.30;;;;;;;;;;5015416;28;20045;-66
2022/07/30 05:23:54;;;;;;;7.82;4.57;;;;;;;;;;5015543;28;20049;-65
2022/07/30 05:26:21;;;;;;;4.55;4.15;;;;;;;;;;5015116;28;20053;-67
2022/07/30 05:28:53;;;;;;;7.35;4.30;;;;;;;;;;5014941;28;20060;-66
2022/07/30 05:31:22;;;;;;;5.28;4.22;;;;;;;;;;5015354;28;20072;-65
2022/07/30 05:33:50;;;;;;;4.75;4.00;;;;;;;;;;5015115;28;20467;-66
2022/07/30 05:36:17;;;;;;;5.85;4.32;;;;;;;;;;5015265;28;20054;-66
2022/07/30 05:38:44;;;;;;;6.82;4.20;;;;;;;;;;5014909;28;20398;-65
2022/07/30 05:41:11;;;;;;;6.40;4.53;;;;;;;;;;5013863;28;20402;-66
2022/07/30 05:43:58;;;;;;;4.82;3.85;;;;;;;;;;5015097;28;20042;-66
2022/07/30 05:46:24;;;;;;;6.22;4.47;;;;;;;;;;5014884;28;20050;-65
2022/07/30 05:48:51;;;;;;;6.93;4.20;;;;;;;;;;5014669;28;20512;-66
2022/07/30 05:51:19;;;;;;;5.07;4.00;;;;;;;;;;5013795;28;20128;-67
2022/07/30 05:53:46;;;;;;;7.28;4.15;;;;;;;;;;5014834;28;20046;-66
2022/07/30 05:56:13;;;;;;;6.82;4.10;;;;;;;;;;5014609;28;20054;-65
2022/07/30 05:58:39;;;;;;;6.15;4.05;;;;;;;;;;5014346;28;20512;-66
2022/07/30 06:01:06;;;;;;;6.72;4.78;;;;;;;;;;5014758;28;20152;-66
2022/07/30 06:03:33;;;;;;;6.00;4.72;;;;;;;;;;5014429;28;20053;-66
2022/07/30 06:06:03;;;;;;;7.68;4.82;;;;;;;;;;5014955;28;20060;-66
2022/07/30 06:08:30;;;;;;;7.50;4.40;;;;;;;;;;5014164;28;20058;-66
2022/07/30 06:10:56;;;;;;;6.68;4.63;;;;;;;;;;5014530;28;20050;-66
2022/07/30 06:13:23;;;;;;;6.30;4.40;;;;;;;;;;5014149;28;20492;-65
2022/07/30 06:15:50;;;;;;;11.35;4.30;;;;;;;;;;5014333;28;20058;-66
2022/07/30 06:18:16;;;;;;;7.25;4.07;;;;;;;;;;5014158;28;20062;-66
2022/07/30 06:20:44;;;;;;;6.93;4.80;;;;;;;;;;5014105;28;20053;-65
2022/07/30 06:23:11;;;;;;;8.02;4.43;;;;;;;;;;5014148;28;20054;-66
2022/07/30 06:25:37;;;;;;;7.57;4.60;;;;;;;;;;5014153;28;20053;-65
2022/07/30 06:28:05;;;;;;;5.75;4.18;;;;;;;;;;5013896;28;20085;-65
2022/07/30 06:30:52;;;;;;;6.88;4.15;;;;;;;;;;5014256;28;20104;-66
2022/07/30 06:33:19;;;;;;;6.13;4.07;;;;;;;;;;5013949;28;20053;-66
2022/07/30 06:35:46;;;;;;;6.15;4.00;;;;;;;;;;5013770;28;20049;-66
2022/07/30 06:38:12;;;;;;;9.10;4.40;;;;;;;;;;5012596;28;20057;-66
2022/07/30 06:40:39;;;;;;;10.65;5.22;;;;;;;;;;5013993;28;20444;-66
2022/07/30 06:43:06;;;;;;;4.50;4.07;;;;;;;;;;5013805;28;20050;-66
2022/07/30 06:45:32;;;;;;;8.32;4.00;;;;;;;;;;5013865;28;20057;-67
2022/07/30 06:47:59;;;;;;;5.13;3.25;;;;;;;;;;5013580;28;20050;-66
2022/07/30 06:50:26;;;;;;;5.88;3.42;;;;;;;;;;5013596;28;20516;-66
2022/07/30 06:52:53;;;;;;;7.60;4.13;;;;;;;;;;5013745;28;20475;-66
2022/07/30 06:55:19;;;;;;;6.30;3.30;;;;;;;;;;5013554;28;20428;-67
2022/07/30 06:57:46;;;;;;;5.50;3.75;;;;;;;;;;5013390;28;20064;-64
2022/07/30 07:00:13;;;;;;;4.72;3.33;;;;;;;;;;5013449;28;20145;-65
2022/07/30 07:02:41;;;;;;;5.72;3.60;;;;;;;;;;5012244;28;20428;-65
2022/07/30 07:05:08;;;;;;;6.72;3.30;;;;;;;;;;5013225;28;20194;-66
2022/07/30 07:07:35;;;;;;;5.07;3.28;;;;;;;;;;5013496;28;20054;-66
2022/07/30 07:10:10;;;;;;;7.38;3.58;;;;;;;;;;5013664;28;20153;-67
2022/07/30 07:12:36;;;;;;;5.68;3.80;;;;;;;;;;5013836;28;20080;-66
2022/07/30 07:15:04;;;;;;;4.97;3.47;;;;;;;;;;5011972;28;20061;-66
2022/07/30 07:17:31;;;;;;;5.95;3.80;;;;;;;;;;5013392;28;20064;-66
2022/07/30 07:19:57;;;;;;;4.75;3.70;;;;;;;;;;5013246;28;20072;-66
2022/07/30 07:22:27;;;;;;;4.70;3.20;;;;;;;;;;5013408;28;20057;-65
2022/07/30 07:24:53;;;;;;;4.93;3.58;;;;;;;;;;5013001;28;20519;-66
2022/07/30 07:27:20;;;;;;;4.78;2.78;;;;;;;;;;5013139;28;20524;-66
2022/07/30 07:29:47;;;;;;;7.97;3.30;;;;;;;;;;5012691;28;20056;-67
2022/07/30 07:32:30;;;;;;;5.72;3.67;;;;;;;;;;5013250;28;20576;-66
2022/07/30 07:34:57;;;;;;;9.80;3.72;;;;;;;;;;5012905;28;20056;-65
2022/07/30 07:37:23;;;;;;;5.65;3.75;;;;;;;;;;5012863;28;20049;-66
2022/07/30 07:39:50;;;;;;;6.60;3.92;;;;;;;;;;5013016;28;20054;-66
2022/07/30 07:42:17;;;;;;;5.20;3.50;;;;;;;;;;5012249;28;20052;-65
2022/07/30 07:44:43;;;;;;;7.38;3.90;;;;;;;;;;5013157;28;20052;-66
2022/07/30 07:47:10;;;;;;;7.88;4.07;;;;;;;;;;5012721;28;20518;-67
2022/07/30 07:49:37;;;;;;;5.03;3.45;;;;;;;;;;5012739;28;20455;-66
2022/07/30 07:52:04;;;;;;;5.90;3.83;;;;;;;;;;5012712;28;20095;-66
2022/07/30 07:54:30;;;;;;;7.75;3.90;;;;;;;;;;5012555;28;20049;-66
2022/07/30 07:56:57;;;;;;;9.32;3.67;;;;;;;;;;5013121;28;20412;-65
2022/07/30 07:59:26;;;;;;;5.70;3.90;;;;;;;;;;5012577;28;20056;-66
2022/07/30 08:02:09;;;;;;;6.72;3.67;;;;;;;;;;5012739;28;20132;-65
2022/07/30 08:04:36;;;;;;;6.53;4.18;;;;;;;;;;5012421;28;20050;-66
2022/07/30 08:07:02;;;;;;;5.82;3.70;;;;;;;;;;5012503;28;20050;-66
2022/07/30 08:09:30;;;;;;;5.85;3.78;;;;;;;;;;5012147;28;20057;-67
2022/07/30 08:12:13;;;;;;;6.57;3.13;;;;;;;;;;5012521;28;20056;-66
2022/07/30 08:14:39;;;;;;;4.25;3.20;;;;;;;;;;5012370;28;20053;-67
2022/07/30 08:17:06;;;;;;;3.50;2.80;;;;;;;;;;5012566;28;20060;-66
2022/07/30 08:19:34;;;;;;;5.30;2.50;;;;;;;;;;5012124;28;20081;-65
2022/07/30 08:22:00;;;;;;;5.22;3.15;;;;;;;;;;5012051;28;20084;-66
2022/07/30 08:24:27;;;;;;;5.53;2.95;;;;;;;;;;5012144;28;20046;-66
2022/07/30 08:26:53;;;;;;;8.43;3.30;;;;;;;;;;5012213;28;20254;-67
2022/07/30 08:29:20;;;;;;;5.43;2.85;;;;;;;;;;5012061;28;20050;-66
2022/07/30 08:31:47;;;;;;;4.63;2.75;;;;;;;;;;5012165;28;20049;-67
2022/07/30 08:34:13;;;;;;;4.68;2.33;;;;;;;;;;5011880;28;20049;-67
2022/07/30 08:36:40;;;;;;;3.75;2.50;;;;;;;;;;5012051;28;20057;-65
2022/07/30 08:39:07;;;;;;;5.57;2.90;;;;;;;;;;5011858;28;20050;-66
2022/07/30 08:41:37;;;;;;;4.38;2.70;;;;;;;;;;5012102;28;20108;-66
2022/07/30 08:44:03;;;;;;;5.13;2.70;;;;;;;;;;5012099;28;20090;-66
2022/07/30 08:46:41;;;;;;;4.60;2.78;;;;;;;;;;5010940;28;20142;-66
2022/07/30 08:49:13;;;;;;;3.28;2.45;;;;;;;;;;5011738;28;20050;-69
2022/07/30 08:51:40;;;;;;;4.88;2.15;;;;;;;;;;5012178;28;20050;-66
2022/07/30 08:54:07;;;;;;;5.03;2.60;;;;;;;;;;4996932;28;20473;-66
2022/07/30 08:56:33;;;;;;;3.35;2.13;;;;;;;;;;5015687;28;20081;-67
2022/07/30 08:59:00;;;;;;;6.13;2.20;;;;;;;;;;5015639;28;20061;-67
2022/07/30 09:01:27;;;;;;;5.25;2.65;;;;;;;;;;5015790;28;20061;-66
2022/07/30 09:03:54;;;;;;;6.60;2.40;;;;;;;;;;5015600;28;20049;-67
2022/07/30 09:06:20;;;;;;;4.65;2.38;;;;;;;;;;5015639;28;20053;-66
2022/07/30 09:08:47;;;;;;;3.90;2.53;;;;;;;;;;5015343;28;20489;-65
2022/07/30 09:11:14;;;;;;;8.88;2.97;;;;;;;;;;5015493;28;20045;-66
2022/07/30 09:13:41;;;;;;;3.92;2.33;;;;;;;;;;5015496;28;20050;-67
2022/07/30 09:16:24;;;;;;;3.58;2.88;;;;;;;;;;5014134;28;20075;-67
2022/07/30 09:18:51;;;;;;;;;;;;;;;;;;5016122;28;20050;-67
2022/07/30 09:21:22;;;;;;;6.53;3.03;;;;;;;;;;5015843;28;19921;-67
2022/07/30 09:24:05;;;;;;;4.07;2.55;;;;;;;;;;5015633;28;20049;-67
2022/07/30 09:26:32;;;;;;;4.32;2.78;;;;;;;;;;5015462;28;20054;-66
2022/07/30 09:29:18;;;;;;;6.00;2.65;;;;;;;;;;4998702;28;20053;-67
2022/07/30 09:32:11;;;;;;;3.45;2.10;;;;;;;;;;5015135;28;20136;-66
2022/07/30 09:34:38;;;;;;;3.67;2.40;;;;;;;;;;5013935;28;20049;-67
2022/07/30 09:37:25;;;;;;;3.10;2.10;;;;;;;;;;5015136;28;20058;-67
2022/07/30 09:39:54;;;;;;;5.38;2.50;;;;;;;;;;5014964;28;20060;-66
2022/07/30 09:42:27;;;;;;;3.42;2.33;;;;;;;;;;5013811;28;20060;-67
2022/07/30 09:45:05;;;;;;;5.90;2.40;;;;;;;;;;5014911;28;20409;-67
2022/07/30 09:47:34;;;;;;;3.45;2.15;;;;;;;;;;5015145;28;20065;-67
2022/07/30 09:50:06;;;;;;;4.10;2.00;;;;;;;;;;5014698;28;20052;-67
2022/07/30 09:52:33;;;;;;;4.65;2.10;;;;;;;;;;5014783;28;20487;-67
2022/07/30 09:55:00;;;;;;;3.88;2.10;;;;;;;;;;5048694;22;20053;-68
2022/07/30 09:57:28;;;;;;;5.13;2.00;;;;;;;;;;5074314;28;20045;-66
2022/07/30 09:59:56;;;;;;;3.10;2.10;;;;;;;;;;5074095;28;20049;-66
2022/07/30 10:02:31;;;;;;;3.35;2.10;;;;;;;;;;5074391;28;20049;-66
2022/07/30 10:05:12;;;;;;;6.53;2.20;;;;;;;;;;5073758;28;20051;-66
2022/07/30 10:07:47;;;;;;;3.95;2.40;;;;;;;;;;5074141;28;20464;-66
2022/07/30 10:10:18;;;;;;;3.58;1.80;;;;;;;;;;5073874;28;20140;-66
2022/07/30 10:12:45;;;;;;;2.45;1.95;;;;;;;;;;5073036;28;20477;-66
2022/07/30 10:15:14;;;;;;;4.97;1.58;;;;;;;;;;5056238;28;20041;-66
2022/07/30 10:17:41;;;;;;;1.55;1.35;;;;;;;;;;5056448;28;20495;-66
2022/07/30 10:20:07;;;;;;;3.67;1.70;;;;;;;;;;5055903;28;20052;-66
2022/07/30 10:22:34;;;;;;;4.10;1.70;;;;;;;;;;5073634;28;20048;-66
2022/07/30 10:25:02;;;;;;;5.55;2.05;;;;;;;;;;5055771;28;20044;-66
2022/07/30 10:27:30;;;;;;;3.13;1.92;;;;;;;;;;5073988;28;20076;-66
2022/07/30 10:29:57;;;;;;;3.40;1.60;;;;;;;;;;5073711;28;20052;-67
2022/07/30 10:32:28;;;;;;;3.92;2.22;;;;;;;;;;5056653;28;20053;-66
2022/07/30 10:34:56;;;;;;;4.78;2.10;;;;;;;;;;5056063;28;20045;-66
2022/07/30 10:37:24;;;;;;;3.53;1.77;;;;;;;;;;5072172;28;20076;-66
2022/07/30 10:39:56;;;;;;;6.65;1.80;;;;;;;;;;5055641;28;20515;-66
2022/07/30 10:42:50;;;;;;;5.80;1.58;;;;;;;;;;5055918;28;20079;-66
2022/07/30 10:45:22;;;;;;;7.10;2.30;;;;;;;;;;5072506;28;20128;-66
2022/07/30 10:47:49;;;;;;;3.08;1.52;;;;;;;;;;5073074;28;20426;-66
2022/07/30 10:50:27;;;;;;;2.83;1.42;;;;;;;;;;5055679;28;20056;-66
2022/07/30 10:52:56;;;;;;;2.53;1.70;;;;;;;;;;5073356;28;20048;-66
2022/07/30 10:55:23;;;;;;;5.28;1.83;;;;;;;;;;5072849;28;20064;-66
2022/07/30 10:58:08;;;;;;;1.88;1.40;;;;;;;;;;5072898;28;20075;-67
2022/07/30 11:00:50;;;;;;;5.57;2.00;;;;;;;;;;5073324;28;20055;-66
2022/07/30 11:03:25;;;;;;;2.47;1.80;;;;;;;;;;5072989;28;20135;-66
2022/07/30 11:06:13;;;;;;;2.70;1.50;;;;;;;;;;5072826;28;20422;-66
2022/07/30 11:08:44;;;;;;;5.65;2.08;;;;;;;;;;5072613;28;20514;-67
2022/07/30 11:11:19;;;;;;;1.58;1.42;;;;;;;;;;5072888;28;20069;-66
2022/07/30 11:14:06;;;;;;;6.63;1.65;;;;;;;;;;5072900;28;20044;-66
2022/07/30 11:16:32;;;;;;;4.25;1.80;;;;;;;;;;5071994;28;20407;-66
2022/07/30 11:19:02;;;;;;;4.30;1.70;;;;;;;;;;5072452;28;20127;-66
2022/07/30 11:22:24;;;;;;;1.65;1.52;;;;;;;;;;5072511;28;20082;-66
2022/07/30 11:24:50;;;;;;;4.90;1.50;;;;;;;;;;5072613;28;20060;-66
2022/07/30 11:27:39;;;;;;;2.72;1.40;;;;;;;;;;5072414;28;20045;-67
2022/07/30 11:30:16;;;;;;;3.60;1.80;;;;;;;;;;5072468;28;20052;-66
2022/07/30 11:32:50;;;;;;;2.80;1.48;;;;;;;;;;5072402;28;20049;-67
2022/07/30 11:35:18;;;;;;;2.55;1.52;;;;;;;;;;5072632;28;20048;-67
2022/07/30 11:38:08;;;;;;;3.63;1.40;;;;;;;;;;5072131;28;20147;-66
2022/07/30 11:40:43;;;;;;;2.38;1.48;;;;;;;;;;5072448;28;20087;-66
2022/07/30 11:43:35;;;;;;;5.25;1.42;;;;;;;;;;5071105;28;20052;-67
2022/07/30 11:46:21;;;;;;;3.08;1.25;;;;;;;;;;5072037;28;20469;-66
2022/07/30 11:49:00;;;;;;;;;;;;;;;;;;5072711;28;20049;-67
2022/07/30 11:51:27;;;;;;;2.95;1.42;;;;;;;;;;5071976;28;20003;-67
2022/07/30 11:54:04;;;;;;;3.78;1.50;;;;;;;;;;5072037;28;20059;-67
2022/07/30 11:56:31;;;;;;;3.13;1.60;;;;;;;;;;5071747;28;20052;-66
2022/07/30 11:59:06;;;;;;;2.90;1.42;;;;;;;;;;5071639;28;20483;-67
2022/07/30 12:01:34;;;;;;;5.20;1.60;;;;;;;;;;5072054;28;20048;-67
2022/07/30 12:04:04;;;;;;;6.05;1.40;;;;;;;;;;5072131;28;20056;-67
2022/07/30 12:06:32;;;;;;;8.55;2.13;;;;;;;;;;5071726;28;20051;-67
2022/07/30 12:08:59;;;;;;;1.52;1.30;;;;;;;;;;5071681;28;20135;-66
2022/07/30 12:11:32;;;;;;;2.60;1.20;;;;;;;;;;5054201;28;20050;-66
2022/07/30 12:14:00;;;;;;;2.97;1.40;;;;;;;;;;5072027;28;20054;-67
2022/07/30 12:16:29;;;;;;;3.45;1.30;;;;;;;;;;5071563;28;20101;-67
2022/07/30 12:19:05;;;;;;;1.60;1.50;;;;;;;;;;5071595;28;20048;-66
2022/07/30 12:21:35;;;;;;;4.50;1.73;;;;;;;;;;5071675;28;20529;-67
2022/07/30 12:24:06;;;;;;;4.03;1.83;;;;;;;;;;5053982;28;20135;-66
2022/07/30 12:26:33;;;;;;;2.03;1.15;;;;;;;;;;5071841;28;20049;-67
2022/07/30 12:29:01;;;;;;;5.05;1.38;;;;;;;;;;5071409;28;20055;-67
2022/07/30 12:31:28;;;;;;;4.28;1.30;;;;;;;;;;5053881;28;20044;-67
2022/07/30 12:33:55;;;;;;;1.63;1.20;;;;;;;;;;5071357;28;20423;-66
2022/07/30 12:36:24;;;;;;;1.58;1.30;;;;;;;;;;5070454;28;20056;-66
2022/07/30 12:38:53;;;;;;;2.53;1.30;;;;;;;;;;5071588;28;20235;-67
2022/07/30 12:41:21;;;;;;;2.47;1.35;;;;;;;;;;5071545;28;20060;-67
2022/07/30 12:43:48;;;;;;;4.95;1.17;;;;;;;;;;5071527;28;20074;-67
2022/07/30 12:46:26;;;;;;;2.60;1.23;;;;;;;;;;5071432;28;20488;-66
2022/07/30 12:48:55;;;;;;;2.83;1.10;;;;;;;;;;5071318;28;20415;-67
2022/07/30 12:51:23;;;;;;;1.73;1.38;;;;;;;;;;5071560;28;20099;-67
2022/07/30 12:53:51;;;;;;;5.47;1.55;;;;;;;;;;5053828;28;20332;-66
2022/07/30 12:56:25;;;;;;;2.95;1.20;;;;;;;;;;5071099;28;20044;-67
2022/07/30 12:58:53;;;;;;;2.22;1.25;;;;;;;;;;5071069;28;20068;-67
2022/07/30 13:01:41;;;;;;;2.63;1.13;;;;;;;;;;5072080;28;20140;-67
2022/07/30 13:04:08;;;;;;;5.38;1.20;;;;;;;;;;5071809;28;20045;-67
2022/07/30 13:06:36;;;;;;;2.30;1.02;;;;;;;;;;5071493;28;20507;-67
2022/07/30 13:09:04;;;;;;;1.38;1.10;;;;;;;;;;5071299;28;20048;-67
2022/07/30 13:11:38;;;;;;;2.50;1.10;;;;;;;;;;5071591;28;20365;-67
2022/07/30 13:14:05;;;;;;;3.45;1.20;;;;;;;;;;5071024;28;20052;-67
2022/07/30 13:16:33;;;;;;;2.42;1.10;;;;;;;;;;5071221;28;20052;-66
2022/07/30 13:19:02;;;;;;;2.75;1.20;;;;;;;;;;5071023;28;20057;-66
2022/07/30 13:21:29;;;;;;;1.20;1.00;;;;;;;;;;5071301;28;20045;-67
2022/07/30 13:23:55;;;;;;;2.10;1.30;;;;;;;;;;5071072;28;20060;-67
2022/07/30 13:26:22;;;;;;;1.10;1.00;;;;;;;;;;5070993;28;20545;-67
2022/07/30 13:28:49;;;;;;;2.15;1.30;;;;;;;;;;5071193;28;20049;-67
2022/07/30 13:31:17;;;;;;;4.03;1.05;;;;;;;;;;5071048;28;20066;-67
2022/07/30 13:33:43;;;;;;;1.30;1.20;;;;;;;;;;5069852;28;20053;-67
2022/07/30 13:36:10;;;;;;;2.83;1.10;;;;;;;;;;5070821;28;20044;-67
2022/07/30 13:38:37;;;;;;;1.38;1.08;;;;;;;;;;5070710;28;20048;-67
2022/07/30 13:41:04;;;;;;;3.13;1.42;;;;;;;;;;5074575;28;20056;-67
2022/07/30 13:43:31;;;;;;;2.17;1.10;;;;;;;;;;5074471;28;20048;-67
2022/07/30 13:45:59;;;;;;;4.75;1.00;;;;;;;;;;5074372;28;20045;-67
2022/07/30 13:48:26;;;;;;;4.07;1.38;;;;;;;;;;5074289;28;20494;-67
2022/07/30 13:50:53;;;;;;;5.10;1.27;;;;;;;;;;5074332;28;20048;-67
2022/07/30 13:53:20;;;;;;;0.95;0.90;;;;;;;;;;5056499;28;20063;-67
2022/07/30 13:55:46;;;;;;;1.45;1.20;;;;;;;;;;5074087;28;20060;-66
2022/07/30 13:58:13;;;;;;;1.27;1.15;;;;;;;;;;5074066;28;20049;-66
2022/07/30 14:00:40;;;;;;;2.72;1.10;;;;;;;;;;5074218;28;20048;-66
2022/07/30 14:03:07;;;;;;;3.42;1.45;;;;;;;;;;5074087;28;20048;-66
2022/07/30 14:05:35;;;;;;;2.17;1.30;;;;;;;;;;5073931;28;20055;-66
2022/07/30 14:08:08;;;;;;;2.20;1.10;;;;;;;;;;5074239;28;20465;-67
2022/07/30 14:10:36;;;;;;;3.30;1.38;;;;;;;;;;5074197;28;20056;-66
2022/07/30 14:13:03;;;;;;;3.80;1.30;;;;;;;;;;5074029;28;20513;-66
2022/07/30 14:15:30;;;;;;;3.22;1.25;;;;;;;;;;5073719;28;20044;-66
2022/07/30 14:17:58;;;;;;;1.77;1.17;;;;;;;;;;5073797;28;20059;-66
2022/07/30 14:20:25;;;;;;;1.52;1.13;;;;;;;;;;5073339;28;20436;-66
2022/07/30 14:22:54;;;;;;;1.13;1.08;;;;;;;;;;5073791;28;20056;-66
2022/07/30 14:25:21;;;;;;;4.10;1.10;;;;;;;;;;5073729;28;20048;-66
2022/07/30 14:27:48;;;;;;;2.65;1.20;;;;;;;;;;5073560;28;20049;-66
2022/07/30 14:30:15;;;;;;;1.48;1.10;;;;;;;;;;5073608;28;20056;-66
2022/07/30 14:32:41;;;;;;;1.65;1.20;;;;;;;;;;5073421;28;20071;-67
2022/07/30 14:35:09;;;;;;;2.78;1.20;;;;;;;;;;5073589;28;20048;-68
2022/07/30 14:37:39;;;;;;;1.63;1.00;;;;;;;;;;5073648;28;20052;-68
2022/07/30 14:40:08;;;;;;;2.35;1.30;;;;;;;;;;5073225;28;20064;-67
2022/07/30 14:42:35;;;;;;;1.33;1.23;;;;;;;;;;5073390;28;20059;-67
2022/07/30 14:45:03;;;;;;;1.23;1.08;;;;;;;;;;5073213;28;20411;-67
2022/07/30 14:47:30;;;;;;;1.90;1.10;;;;;;;;;;5073550;28;20387;-67
2022/07/30 14:49:56;;;;;;;3.65;1.17;;;;;;;;;;5073042;28;20415;-67
2022/07/30 14:52:24;;;;;;;2.85;1.15;;;;;;;;;;5073327;28;20052;-67
2022/07/30 14:54:51;;;;;;;2.42;1.20;;;;;;;;;;5072936;28;20055;-67
2022/07/30 14:57:18;;;;;;;3.22;1.20;;;;;;;;;;5073193;28;20059;-67